Time;durP1;ratioP1;P1;durP2;ratioP2;P2;SDS_P1;SDS_P2;PMS_P1;PMS_P2;Temp;Humidity;BMP_temperature;BMP_pressure;BME280_temperature;BME280_humidity;BME280_pressure;Samples;Min_cycle;Max_cycle;Signal;HPM_P1;HPM_P2
2023/06/28 00:04:11;;;;;;;3.60;2.03;;;;;;;19.89;47.98;99649.87;7739389;32;38995;-74
2023/06/28 00:08:27;;;;;;;4.37;2.28;;;;;;;19.88;47.83;99639.16;7739365;32;40015;-74
2023/06/28 00:12:44;;;;;;;4.60;2.12;;;;;;;19.70;48.25;99650.34;7739351;32;37951;-74
2023/06/28 00:17:00;;;;;;;4.57;2.30;;;;;;;19.69;48.53;99639.59;7738506;32;36958;-74
2023/06/28 00:21:16;;;;;;;3.45;2.53;;;;;;;19.43;50.17;99648.88;7739170;32;39361;-74
2023/06/28 00:25:33;;;;;;;3.42;2.42;;;;;;;19.60;49.96;99647.16;7725473;32;40118;-74
2023/06/28 00:29:49;;;;;;;4.30;2.40;;;;;;;19.43;51.08;99648.88;7725376;32;37612;-74
2023/06/28 00:34:05;;;;;;;7.10;2.75;;;;;;;19.32;51.92;99653.19;7739064;32;37120;-74
2023/06/28 00:38:22;;;;;;;5.18;2.47;;;;;;;19.32;52.23;99656.75;7725244;32;40218;-74
2023/06/28 00:42:38;;;;;;;4.70;2.75;;;;;;;19.40;52.20;99659.78;7725154;32;40100;-74
2023/06/28 00:46:56;;;;;;;4.22;2.60;;;;;;;19.24;52.73;99662.31;7738912;32;37864;-74
2023/06/28 00:51:12;;;;;;;7.05;2.40;;;;;;;19.17;53.19;99662.03;7725063;32;37818;-73
2023/06/28 00:55:28;;;;;;;5.87;2.70;;;;;;;19.22;53.07;99667.38;7738851;32;39414;-74
2023/06/28 00:59:44;;;;;;;2.97;2.12;;;;;;;19.15;53.13;99665.13;7738766;32;40865;-74
2023/06/28 01:04:04;;;;;;;5.62;2.53;;;;;;;19.05;52.55;99671.84;7738688;32;38070;-74
2023/06/28 01:08:21;;;;;;;6.78;2.60;;;;;;;18.97;52.71;99666.34;7738764;32;37906;-74
2023/06/28 01:12:37;;;;;;;5.15;2.92;;;;;;;18.96;52.58;99668.31;7738698;32;39851;-74
2023/06/28 01:16:57;;;;;;;7.35;2.22;;;;;;;18.92;52.17;99667.31;7724917;32;40130;-74
2023/06/28 01:21:16;;;;;;;4.78;2.25;;;;;;;19.04;51.53;99659.19;7725149;32;37560;-75
2023/06/28 01:25:32;;;;;;;4.82;2.42;;;;;;;18.95;51.80;99669.44;7725108;32;37246;-74
2023/06/28 01:29:55;;;;;;;6.22;2.37;;;;;;;18.99;51.93;99666.81;7738136;32;40094;-74
2023/06/28 01:34:13;;;;;;;3.60;1.80;;;;;;;18.86;52.28;99676.94;7725685;32;39606;-74
2023/06/28 01:38:30;;;;;;;3.58;2.22;;;;;;;19.09;51.70;99670.03;7738445;32;38566;-75
2023/06/28 01:42:46;;;;;;;4.55;2.70;;;;;;;19.17;51.49;99679.44;7738258;32;37059;-75
2023/06/28 01:47:03;;;;;;;6.37;2.55;;;;;;;19.20;51.39;99683.50;7738247;32;40215;-74
2023/06/28 01:51:19;;;;;;;5.28;2.65;;;;;;;19.16;51.44;99675.03;7738039;32;39946;-74
2023/06/28 01:55:35;;;;;;;4.43;2.67;;;;;;;19.02;51.48;99672.50;7724361;32;38445;-74
2023/06/28 01:59:51;;;;;;;6.25;2.58;;;;;;;18.91;51.63;99665.72;7737821;32;37159;-75
2023/06/28 02:04:08;;;;;;;4.50;2.75;;;;;;;18.83;51.82;99672.09;7737926;32;39527;-74
2023/06/28 02:08:24;;;;;;;3.95;2.28;;;;;;;18.98;51.48;99665.22;7737989;32;39838;-74
2023/06/28 02:12:41;;;;;;;4.97;2.55;;;;;;;19.02;51.48;99664.19;7737824;32;38004;-74
2023/06/28 02:16:57;;;;;;;3.95;2.15;;;;;;;18.71;52.59;99661.69;7737994;32;36763;-74
2023/06/28 02:21:14;;;;;;;3.53;2.30;;;;;;;18.86;52.13;99654.84;7737788;32;38913;-74
2023/06/28 02:25:30;;;;;;;6.97;2.72;;;;;;;18.94;51.84;99656.78;7737759;32;40070;-74
2023/06/28 02:29:46;;;;;;;10.75;2.75;;;;;;;18.79;52.44;99652.56;7737560;32;37854;-74
2023/06/28 02:34:02;;;;;;;4.95;2.30;;;;;;;18.83;52.61;99653.56;7737563;32;37130;-74
2023/06/28 02:38:19;;;;;;;4.97;2.80;;;;;;;18.69;53.12;99653.72;7737563;32;39394;-73
2023/06/28 02:42:35;;;;;;;6.22;3.00;;;;;;;18.45;53.92;99654.28;7736456;32;40530;-74
2023/06/28 02:46:51;;;;;;;3.72;2.30;;;;;;;18.53;53.67;99656.22;7710774;32;38411;-74
2023/06/28 02:51:07;;;;;;;4.43;2.47;;;;;;;18.89;53.10;99651.44;7737030;32;35902;-74
2023/06/28 02:55:24;;;;;;;4.68;2.45;;;;;;;18.84;53.24;99643.34;7737251;32;39263;-74
2023/06/28 02:59:40;;;;;;;3.78;2.70;;;;;;;18.68;53.46;99654.06;7737222;32;39914;-74
2023/06/28 03:03:56;;;;;;;5.93;2.67;;;;;;;18.44;54.38;99658.19;7722956;32;38666;-74
2023/06/28 03:08:13;;;;;;;6.18;2.47;;;;;;;18.57;53.80;99650.84;7736796;32;38227;-74
2023/06/28 03:12:29;;;;;;;5.10;2.45;;;;;;;18.51;53.97;99649.41;7736768;32;39905;-74
2023/06/28 03:16:45;;;;;;;3.97;2.55;;;;;;;18.51;53.89;99649.41;7736536;32;40156;-73
2023/06/28 03:21:02;;;;;;;3.72;2.80;;;;;;;18.43;54.03;99647.47;7736498;32;37893;-74
2023/06/28 03:25:18;;;;;;;7.00;2.72;;;;;;;18.43;54.05;99650.25;7736247;32;37892;-74
2023/06/28 03:29:34;;;;;;;5.15;2.72;;;;;;;18.46;53.96;99650.41;7736147;32;39394;-73
2023/06/28 03:33:51;;;;;;;5.80;2.60;;;;;;;18.51;53.90;99647.47;7736112;32;41517;-74
2023/06/28 03:38:07;;;;;;;3.60;2.42;;;;;;;18.47;53.98;99642.91;7736004;32;37603;-74
2023/06/28 03:42:23;;;;;;;6.72;2.78;;;;;;;18.47;53.62;99643.75;7735964;32;36736;-74
2023/06/28 03:46:39;;;;;;;3.78;2.40;;;;;;;18.34;53.83;99648.31;7735881;32;39384;-74
2023/06/28 03:50:56;;;;;;;5.45;2.17;;;;;;;18.38;53.89;99651.22;7735626;32;39829;-74
2023/06/28 03:55:12;;;;;;;4.35;2.40;;;;;;;18.37;54.16;99652.38;7739458;32;37902;-74
2023/06/28 03:59:28;;;;;;;4.80;2.58;;;;;;;18.28;54.62;99655.16;7739464;32;37845;-74
2023/06/28 04:03:45;;;;;;;3.67;2.60;;;;;;;18.41;54.28;99669.88;7739530;32;39437;-74
2023/06/28 04:08:02;;;;;;;3.90;2.42;;;;;;;18.46;54.31;99677.19;7739429;32;39630;-74
2023/06/28 04:12:18;;;;;;;5.95;2.80;;;;;;;18.25;54.30;99677.88;7739188;32;37986;-74
2023/06/28 04:16:35;;;;;;;4.72;2.62;;;;;;;18.18;54.37;99683.06;7739336;32;37848;-74
2023/06/28 04:20:51;;;;;;;5.37;2.87;;;;;;;18.16;55.24;99686.16;7739244;32;39876;-74
2023/06/28 04:25:07;;;;;;;5.35;3.03;;;;;;;18.33;54.31;99682.56;7739059;32;39913;-74
2023/06/28 04:29:24;;;;;;;9.40;3.78;;;;;;;18.26;54.43;99687.75;7739105;32;38103;-75
2023/06/28 04:33:40;;;;;;;7.68;2.87;;;;;;;18.19;54.99;99685.47;7739082;32;37139;-74
2023/06/28 04:37:56;;;;;;;6.57;3.12;;;;;;;18.24;55.62;99684.50;7739094;32;40042;-75
2023/06/28 04:42:15;;;;;;;7.62;2.83;;;;;;;18.16;56.27;99696.34;7725256;32;40786;-74
2023/06/28 04:46:32;;;;;;;5.70;2.70;;;;;;;18.42;55.65;99699.13;7739043;32;37505;-74
2023/06/28 04:50:52;;;;;;;6.03;2.72;;;;;;;18.43;55.47;99709.00;7738825;32;37003;-74
2023/06/28 04:55:08;;;;;;;6.75;3.05;;;;;;;18.18;56.63;99713.41;7738783;32;39411;-74
2023/06/28 04:59:24;;;;;;;7.12;3.10;;;;;;;18.29;56.64;99711.94;7738773;32;40885;-74
2023/06/28 05:03:41;;;;;;;5.32;3.20;;;;;;;18.31;56.55;99708.84;7738169;32;39276;-74
2023/06/28 05:07:59;;;;;;;10.88;3.37;;;;;;;18.46;55.95;99702.03;7738756;32;36863;-74
2023/06/28 05:12:15;;;;;;;5.90;3.17;;;;;;;18.59;55.79;99712.06;7738751;32;40386;-74
2023/06/28 05:16:31;;;;;;;7.75;3.33;;;;;;;18.38;55.59;99709.16;7738613;32;39974;-74
2023/06/28 05:20:48;;;;;;;5.45;2.97;;;;;;;18.46;55.56;99713.88;7738583;32;38023;-74
2023/06/28 05:25:04;;;;;;;6.05;2.75;;;;;;;18.67;54.34;99711.25;7738580;32;37093;-74
2023/06/28 05:29:21;;;;;;;6.95;2.70;;;;;;;18.69;53.62;99717.25;7738623;32;39416;-74
2023/06/28 05:33:38;;;;;;;6.18;2.90;;;;;;;18.58;53.01;99721.50;7738417;32;39923;-74
2023/06/28 05:37:54;;;;;;;5.35;2.42;;;;;;;18.32;54.08;99727.84;7738220;32;37821;-74
2023/06/28 05:42:10;;;;;;;8.73;2.30;;;;;;;18.56;52.66;99732.06;7738338;32;37365;-74
2023/06/28 05:46:27;;;;;;;6.53;2.22;;;;;;;18.63;52.72;99726.03;7738351;32;40061;-74
2023/06/28 05:50:45;;;;;;;6.32;2.55;;;;;;;18.76;51.83;99725.84;7738088;32;40621;-74
2023/06/28 05:55:02;;;;;;;7.97;2.85;;;;;;;18.69;50.96;99720.00;7738156;32;38649;-74
2023/06/28 05:59:18;;;;;;;8.40;2.83;;;;;;;18.79;51.35;99723.56;7738245;32;37191;-74
2023/06/28 06:03:35;;;;;;;7.28;2.22;;;;;;;19.13;51.36;99717.97;7738086;32;39269;-74
2023/06/28 06:07:51;;;;;;;5.62;2.35;;;;;;;18.75;50.62;99724.22;7738089;32;39606;-74
2023/06/28 06:12:08;;;;;;;3.15;1.90;;;;;;;19.25;50.28;99724.75;7737894;32;38746;-75
2023/06/28 06:16:24;;;;;;;6.80;1.83;;;;;;;19.08;50.99;99729.19;7736589;32;38604;-70
2023/06/28 06:20:40;;;;;;;3.33;1.85;;;;;;;19.20;48.92;99733.22;7737766;32;39659;-69
2023/06/28 06:24:57;;;;;;;2.62;1.70;;;;;;;19.32;48.30;99745.19;7737605;32;40766;-70
2023/06/28 06:29:13;;;;;;;3.42;1.62;;;;;;;18.71;47.27;99747.28;7737578;32;38487;-71
2023/06/28 06:33:29;;;;;;;3.25;1.90;;;;;;;19.08;48.78;99754.06;7737637;32;37084;-72
2023/06/28 06:37:46;;;;;;;3.67;2.10;;;;;;;18.99;48.21;99760.75;7737465;32;40210;-70
2023/06/28 06:42:02;;;;;;;4.18;2.12;;;;;;;18.61;49.93;99762.25;7737328;32;39889;-69
2023/06/28 06:46:20;;;;;;;6.25;2.20;;;;;;;18.94;49.92;99754.25;7736573;32;38753;-69
2023/06/28 08:01:53;;;;;;;3.70;1.40;;;;;;;20.24;45.18;99735.38;7799267;31;1745208;-74
2023/06/28 08:06:12;;;;;;;4.60;1.77;;;;;;;20.24;45.18;99735.38;7844906;31;39844;-74
2023/06/28 08:10:29;;;;;;;4.43;1.75;;;;;;;20.61;44.14;99735.56;7844844;31;38486;-74
2023/06/28 08:14:47;;;;;;;5.55;1.92;;;;;;;20.36;44.73;99740.16;7853339;31;35042;-74
2023/06/28 08:19:04;;;;;;;4.70;1.65;;;;;;;21.03;43.22;99722.78;7852167;31;38914;-73
2023/06/28 08:23:21;;;;;;;4.20;1.85;;;;;;;21.13;43.44;99722.34;7853384;31;40894;-74
2023/06/28 08:27:37;;;;;;;1.27;1.17;;;;;;;21.12;42.58;99720.69;7849784;31;37883;-74
2023/06/28 08:31:54;;;;;;;4.03;1.50;;;;;;;21.73;38.29;99709.66;7834283;31;36956;-75
2023/06/28 08:36:10;;;;;;;4.32;1.48;;;;;;;21.73;38.68;99704.09;7833584;31;38789;-73
2023/06/28 08:40:29;;;;;;;3.03;1.20;;;;;;;21.96;36.80;99705.56;7839719;31;39996;-73
2023/06/28 08:44:49;;;;;;;2.58;1.35;;;;;;;21.72;37.27;99701.66;7838394;31;38652;-73
2023/06/28 08:49:06;;;;;;;3.12;1.50;;;;;;;21.70;37.78;99710.34;7839572;32;37651;-73
2023/06/28 08:53:24;;;;;;;3.25;1.50;;;;;;;21.49;37.64;99720.75;7838257;31;39768;-73
2023/06/28 08:57:40;;;;;;;2.05;1.10;;;;;;;22.27;37.51;99702.94;7839442;32;39655;-74
2023/06/28 09:01:59;;;;;;;8.02;1.55;;;;;;;22.41;39.07;99702.53;7810816;31;38720;-73
2023/06/28 09:06:15;;;;;;;2.10;1.37;;;;;;;22.80;36.92;99696.44;7799555;32;36829;-68
2023/06/28 09:10:32;;;;;;;1.75;1.20;;;;;;;22.80;34.98;99711.16;7794083;32;40718;-73
2023/06/28 09:14:48;;;;;;;1.45;1.00;;;;;;;22.81;35.46;99709.16;7812780;32;39910;-73
2023/06/28 09:19:05;;;;;;;2.87;1.00;;;;;;;23.20;33.44;99699.09;7815171;31;37907;-73
2023/06/28 09:23:26;;;;;;;3.20;0.98;;;;;;;23.92;32.15;99700.81;7818055;31;36828;-74
2023/06/28 09:27:42;;;;;;;1.62;1.10;;;;;;;23.71;33.32;99701.06;7821153;31;38808;-74
2023/06/28 09:32:02;;;;;;;1.42;1.12;;;;;;;24.05;31.92;99697.88;7829841;31;40036;-73
2023/06/28 09:36:22;;;;;;;3.50;1.37;;;;;;;24.17;32.98;99700.53;7831285;31;37773;-74
2023/06/28 09:40:38;;;;;;;2.60;1.45;;;;;;;24.81;32.00;99698.22;7817284;31;36101;-74
2023/06/28 09:44:55;;;;;;;2.92;1.20;;;;;;;25.08;33.42;99690.72;7819602;32;39352;-74
2023/06/28 09:49:24;;;;;;;2.22;1.10;;;;;;;23.89;33.23;99689.59;7795927;32;39946;-74
2023/06/28 09:53:54;;;;;;;3.22;1.10;;;;;;;23.93;31.14;99684.91;7793235;32;37887;-73
2023/06/28 09:58:12;;;;;;;3.83;1.27;;;;;;;23.61;31.91;99680.19;7792968;32;36619;-73
2023/06/28 10:02:29;;;;;;;2.00;1.08;;;;;;;24.57;30.89;99685.41;7793539;32;39085;-73
2023/06/28 10:06:46;;;;;;;2.37;1.20;;;;;;;24.21;30.34;99675.53;7793789;32;40237;-74
2023/06/28 10:11:05;;;;;;;2.72;1.12;;;;;;;24.62;30.31;99660.03;7791784;32;38714;-73
2023/06/28 10:15:23;;;;;;;2.55;1.10;;;;;;;24.05;28.45;99686.75;7792694;32;37619;-74
2023/06/28 10:19:39;;;;;;;2.92;0.93;;;;;;;24.10;31.42;99666.97;7792791;32;39106;-74
2023/06/28 10:23:57;;;;;;;1.95;1.23;;;;;;;24.25;29.97;99663.28;7807394;32;40927;-74
2023/06/28 10:28:14;;;;;;;2.87;0.90;;;;;;;24.64;30.35;99659.66;7820220;31;36050;-74
2023/06/28 10:32:31;;;;;;;2.87;1.20;;;;;;;24.77;29.59;99655.53;7819979;32;37563;-74
2023/06/28 10:36:48;;;;;;;2.58;1.20;;;;;;;24.72;31.71;99661.41;7820000;32;39095;-74
2023/06/28 10:41:05;;;;;;;2.95;1.10;;;;;;;24.10;32.27;99666.97;7815913;32;40656;-74
2023/06/28 10:45:37;;;;;;;1.85;1.20;;;;;;;23.73;32.67;99653.41;7794326;32;37900;-74
2023/06/28 10:50:11;;;;;;;9.10;1.80;;;;;;;23.62;33.97;99648.41;7799291;32;36457;-75
2023/06/28 10:54:27;;;;;;;11.05;1.40;;;;;;;24.60;33.12;99644.88;7800195;32;38089;-74
2023/06/28 10:58:45;;;;;;;5.93;1.62;;;;;;;24.91;31.19;99633.47;7801763;31;41520;-75
2023/06/28 11:03:06;;;;;;;2.83;1.00;;;;;;;24.28;32.38;99647.81;7799043;32;38645;-75
2023/06/28 11:07:27;;;;;;;4.72;1.10;;;;;;;23.62;33.23;99642.84;7806080;32;36635;-74
2023/06/28 11:11:58;;;;;;;4.03;1.15;;;;;;;23.53;33.90;99644.22;7815669;32;39209;-74
2023/06/28 11:16:24;;;;;;;2.53;1.30;;;;;;;24.24;30.95;99650.53;7811796;32;39990;-74
2023/06/28 11:20:50;;;;;;;0.80;0.80;;;;;;;23.71;31.13;99650.97;7817756;32;37943;-74
2023/06/28 11:25:06;;;;;;;5.07;1.30;;;;;;;23.30;32.46;99649.66;7813046;32;37051;-74
2023/06/28 11:29:23;;;;;;;15.45;2.58;;;;;;;23.54;33.41;99643.87;7815150;31;39868;-74
2023/06/28 11:33:39;;;;;;;3.67;1.27;;;;;;;23.71;34.43;99639.84;7821702;31;40731;-74
2023/06/28 11:37:56;;;;;;;1.77;1.05;;;;;;;24.29;31.79;99647.44;7810707;31;38662;-74
2023/06/28 11:42:16;;;;;;;1.92;1.08;;;;;;;23.66;32.42;99648.47;7817863;31;35557;-74
2023/06/28 11:46:36;;;;;;;1.58;1.35;;;;;;;23.57;33.98;99637.56;7813195;31;38935;-74
2023/06/28 11:51:00;;;;;;;1.67;1.10;;;;;;;23.54;33.77;99624.41;7802536;31;38271;-74
2023/06/28 11:55:16;;;;;;;2.65;1.50;;;;;;;24.02;32.78;99626.22;7799279;32;38554;-76
2023/06/28 11:59:34;;;;;;;6.25;1.60;;;;;;;24.68;33.23;99613.97;7813970;32;36870;-76
2023/06/28 12:03:50;;;;;;;1.95;1.40;;;;;;;24.28;32.44;99628.31;7818510;32;39938;-81
2023/06/28 12:08:06;;;;;;;6.93;3.70;;;;;;;24.72;33.08;99614.03;7814733;32;39927;-76
2023/06/28 12:12:35;;;;;;;12.77;6.10;;;;;;;25.21;31.93;99606.84;7790465;32;37882;-76
2023/06/28 12:16:52;;;;;;;5.15;1.65;;;;;;;25.31;29.52;99600.66;7789407;32;37748;-76
2023/06/28 12:21:44;;;;;;;1.55;1.45;;;;;;;24.70;30.72;99606.03;7803004;32;39382;-78
2023/06/28 12:26:00;;;;;;;7.40;1.90;;;;;;;24.63;32.21;99605.91;7732527;32;40744;-78
2023/06/28 12:30:17;;;;;;;4.50;3.05;;;;;;;24.54;32.50;99641.56;7817169;32;38643;-77
2023/06/28 12:34:34;;;;;;;2.22;1.00;;;;;;;24.24;33.81;99628.25;7817967;32;36969;-76
2023/06/28 12:38:54;;;;;;;3.40;1.10;;;;;;;24.17;32.26;99631.69;7803355;31;39127;-76
2023/06/28 12:43:14;;;;;;;2.33;1.20;;;;;;;24.57;31.95;99618.53;7793750;32;39644;-78
2023/06/28 12:47:32;;;;;;;2.50;1.25;;;;;;;24.82;29.19;99613.41;7793781;32;36113;-77
2023/06/28 12:51:48;;;;;;;1.27;1.17;;;;;;;25.11;27.24;99617.47;7801785;31;36688;-77
2023/06/28 12:56:05;;;;;;;2.75;1.23;;;;;;;25.59;28.27;99625.34;7808027;31;39921;-78
2023/06/28 13:00:22;;;;;;;4.25;1.17;;;;;;;26.12;27.66;99618.88;7820655;32;39946;-81
2023/06/28 13:04:38;;;;;;;1.83;0.82;;;;;;;26.28;26.98;99626.25;7820628;32;37616;-79
2023/06/28 13:08:55;;;;;;;5.03;1.20;;;;;;;26.05;27.37;99621.59;7820201;32;37058;-79
2023/06/28 13:13:11;;;;;;;8.77;1.40;;;;;;;25.32;28.29;99640.50;7820343;32;39645;-79
2023/06/28 13:17:27;;;;;;;15.68;2.33;;;;;;;24.59;30.83;99649.63;7818360;32;39855;-80
2023/06/28 13:21:51;;;;;;;6.62;1.33;;;;;;;24.14;33.07;99673.41;7817440;32;37623;-79
2023/06/28 13:26:07;;;;;;;3.25;1.00;;;;;;;24.36;33.31;99708.06;7819659;32;38124;-80
2023/06/28 13:30:23;;;;;;;3.12;0.82;;;;;;;24.50;34.29;99705.56;7820356;32;39198;-80
2023/06/28 13:34:40;;;;;;;4.53;1.30;;;;;;;24.74;33.31;99698.88;7820790;32;41299;-80
2023/06/28 13:38:56;;;;;;;11.90;1.70;;;;;;;25.25;33.12;99708.97;7820515;32;37637;-81
2023/06/28 13:43:12;;;;;;;3.80;0.90;;;;;;;25.07;32.95;99703.03;7819822;32;36927;-80
2023/06/28 13:47:29;;;;;;;2.17;0.90;;;;;;;25.56;30.55;99700.66;7820526;32;39193;-80
2023/06/28 13:51:45;;;;;;;0.95;0.70;;;;;;;26.20;30.58;99696.00;7820536;32;40087;-81
2023/06/28 13:56:01;;;;;;;2.97;0.65;;;;;;;26.60;28.82;99694.47;7820395;32;38711;-80
2023/06/28 14:00:18;;;;;;;3.78;0.90;;;;;;;27.10;26.75;99682.19;7820231;32;36871;-81
2023/06/28 14:04:34;;;;;;;2.62;1.10;;;;;;;27.18;28.44;99692.25;7820316;32;39604;-80
2023/06/28 14:08:51;;;;;;;3.05;0.80;;;;;;;27.59;25.68;99671.78;7820268;32;40788;-80
2023/06/28 14:13:07;;;;;;;0.60;0.52;;;;;;;27.90;25.53;99671.16;7820118;32;39508;-80
2023/06/28 14:17:23;;;;;;;1.95;0.62;;;;;;;27.91;25.38;99669.19;7819023;32;36843;-79
2023/06/28 14:21:40;;;;;;;0.82;0.80;;;;;;;27.31;26.87;99667.59;7818684;32;39301;-80
2023/06/28 14:25:56;;;;;;;2.85;1.00;;;;;;;27.38;27.37;99658.47;7820266;32;39768;-80
2023/06/28 14:30:13;;;;;;;2.92;1.08;;;;;;;26.78;28.13;99674.31;7819859;32;38604;-80
2023/06/28 14:34:29;;;;;;;2.53;1.40;;;;;;;26.49;28.64;99668.41;7820027;32;36950;-80
2023/06/28 14:38:45;;;;;;;5.30;1.30;;;;;;;26.39;28.84;99666.31;7819867;32;39277;-79
2023/06/28 14:43:02;;;;;;;2.50;0.93;;;;;;;26.09;30.42;99655.94;7819784;32;39903;-79
2023/06/28 14:47:18;;;;;;;1.35;0.70;;;;;;;25.41;30.62;99655.00;7819743;32;37621;-80
2023/06/28 14:51:34;;;;;;;1.40;1.02;;;;;;;25.34;31.11;99652.91;7819786;32;36754;-79
2023/06/28 14:55:50;;;;;;;1.37;0.98;;;;;;;24.71;32.37;99652.22;7819784;32;39133;-79
2023/06/28 15:00:07;;;;;;;1.98;1.23;;;;;;;25.26;32.35;99637.25;7818738;32;40791;-79
2023/06/28 15:04:24;;;;;;;2.25;0.70;;;;;;;24.47;32.83;99638.62;7819560;32;38701;-79
2023/06/28 15:08:40;;;;;;;1.00;0.90;;;;;;;24.24;33.90;99638.59;7819562;32;37609;-79
2023/06/28 15:12:56;;;;;;;1.20;0.80;;;;;;;24.58;33.51;99631.31;7819376;32;39924;-79
2023/06/28 15:17:13;;;;;;;4.30;1.12;;;;;;;24.73;31.97;99626.78;7819274;32;39895;-79
2023/06/28 15:21:30;;;;;;;2.22;1.17;;;;;;;24.45;33.06;99632.63;7819217;32;37853;-79
2023/06/28 15:25:48;;;;;;;2.28;1.17;;;;;;;24.49;32.78;99628.75;7819269;32;36865;-79
2023/06/28 15:30:05;;;;;;;1.50;0.90;;;;;;;23.80;34.18;99637.69;7819172;32;39055;-78
2023/06/28 15:34:22;;;;;;;1.83;1.20;;;;;;;23.28;33.69;99638.88;7818974;32;39878;-79
2023/06/28 15:38:39;;;;;;;1.42;1.15;;;;;;;23.09;34.65;99647.97;7818922;32;37886;-79
2023/06/28 15:42:55;;;;;;;4.03;1.20;;;;;;;22.90;35.56;99634.75;7817839;32;36919;-79
2023/06/28 15:47:11;;;;;;;4.10;1.40;;;;;;;23.22;34.26;99630.00;7818682;32;40185;-79
2023/06/28 15:51:28;;;;;;;3.62;1.83;;;;;;;22.99;34.08;99621.50;7818473;32;39892;-79
2023/06/28 15:55:44;;;;;;;8.35;1.58;;;;;;;23.20;34.47;99621.22;7817314;32;38491;-79
2023/06/28 16:00:00;;;;;;;1.98;1.15;;;;;;;23.38;34.13;99615.28;7818191;32;37816;-79
2023/06/28 16:04:17;;;;;;;3.65;1.35;;;;;;;23.46;33.98;99619.00;7818146;32;39235;-79
2023/06/28 16:08:33;;;;;;;2.65;1.30;;;;;;;23.72;35.31;99613.66;7818083;32;40845;-80
2023/06/28 16:12:51;;;;;;;3.45;1.48;;;;;;;23.47;35.14;99626.19;7819764;32;37778;-79
2023/06/28 16:17:07;;;;;;;2.08;1.08;;;;;;;24.00;35.30;99618.22;7821654;32;37010;-80
2023/06/28 16:21:24;;;;;;;5.00;1.30;;;;;;;23.84;35.67;99614.72;7821538;32;39123;-80
2023/06/28 16:25:42;;;;;;;2.25;1.23;;;;;;;23.72;35.04;99615.62;7821534;32;39755;-79
2023/06/28 16:29:58;;;;;;;5.97;2.72;;;;;;;23.67;34.13;99610.34;7821299;32;39156;-79
2023/06/28 16:34:15;;;;;;;5.28;2.28;;;;;;;23.32;35.88;99613.94;7821468;32;37697;-79
2023/06/28 16:38:31;;;;;;;2.15;1.00;;;;;;;23.54;35.50;99612.44;7821246;32;39293;-80
2023/06/28 16:42:47;;;;;;;6.25;1.87;;;;;;;23.87;34.37;99614.78;7821360;32;39964;-79
2023/06/28 16:47:04;;;;;;;2.47;1.02;;;;;;;23.86;33.77;99612.37;7821078;32;38009;-79
2023/06/28 16:51:21;;;;;;;3.60;1.55;;;;;;;23.67;33.79;99610.34;7821113;32;37484;-78
2023/06/28 16:55:37;;;;;;;2.78;1.50;;;;;;;23.40;33.51;99613.75;7821116;32;39247;-80
2023/06/28 16:59:53;;;;;;;2.25;1.50;;;;;;;23.14;34.50;99619.87;7820866;32;40098;-80
2023/06/28 17:04:09;;;;;;;1.95;1.05;;;;;;;22.93;33.86;99622.13;7821036;32;37824;-79
2023/06/28 17:08:26;;;;;;;2.97;1.20;;;;;;;23.36;32.90;99623.19;7821052;32;37551;-80
2023/06/28 17:12:42;;;;;;;1.62;1.17;;;;;;;23.25;32.22;99622.94;7820920;32;38861;-79
2023/06/28 17:16:59;;;;;;;3.47;0.90;;;;;;;23.02;33.12;99625.53;7820818;32;39968;-79
2023/06/28 17:21:15;;;;;;;2.05;0.82;;;;;;;23.18;32.87;99633.88;7820488;32;38000;-79
2023/06/28 17:25:32;;;;;;;2.10;1.20;;;;;;;23.08;33.39;99632.47;7820766;32;36970;-79
2023/06/28 17:29:51;;;;;;;3.90;1.00;;;;;;;22.81;33.71;99631.34;7820560;32;39963;-79
2023/06/28 17:34:08;;;;;;;2.15;1.25;;;;;;;22.73;34.56;99633.13;7820631;32;40013;-79
2023/06/28 17:38:24;;;;;;;5.18;1.50;;;;;;;22.56;35.22;99634.31;7820555;32;37671;-79
2023/06/28 17:42:40;;;;;;;2.45;1.45;;;;;;;22.54;34.28;99627.47;7820532;32;36903;-79
2023/06/28 17:46:57;;;;;;;2.42;1.70;;;;;;;22.26;34.68;99644.94;7820617;32;39152;-79
2023/06/28 17:51:13;;;;;;;1.77;1.10;;;;;;;22.21;35.08;99636.88;7820265;32;39902;-79
2023/06/28 17:55:30;;;;;;;4.20;1.70;;;;;;;22.26;35.28;99639.41;7820335;32;37867;-79
2023/06/28 17:59:46;;;;;;;1.67;1.12;;;;;;;21.92;36.05;99638.81;7820167;32;37574;-79
2023/06/28 18:04:02;;;;;;;4.70;1.20;;;;;;;22.06;36.21;99633.72;7820385;32;38945;-80
2023/06/28 18:08:19;;;;;;;3.60;1.15;;;;;;;21.68;37.34;99632.22;7820381;32;40918;-79
2023/06/28 18:12:35;;;;;;;6.00;1.25;;;;;;;21.46;38.29;99630.75;7818919;32;38672;-80
2023/06/28 18:16:52;;;;;;;4.18;0.98;;;;;;;21.62;38.29;99639.16;7820079;32;37640;-79
2023/06/28 18:21:08;;;;;;;5.65;1.20;;;;;;;21.52;38.12;99643.19;7818783;32;39015;-79
2023/06/28 18:25:24;;;;;;;4.22;3.22;;;;;;;21.63;37.90;99660.19;7819923;32;39942;-79
2023/06/28 18:29:41;;;;;;;4.95;4.22;;;;;;;21.57;38.35;99659.59;7815725;32;38694;-79
2023/06/28 18:33:57;;;;;;;3.40;1.40;;;;;;;21.62;38.20;99660.53;7791448;32;36998;-79
2023/06/28 18:38:14;;;;;;;7.22;4.10;;;;;;;21.51;38.99;99662.97;7814563;32;39241;-79
2023/06/28 18:42:31;;;;;;;2.60;1.70;;;;;;;21.49;39.01;99666.09;7805647;32;39900;-79
2023/06/28 18:46:49;;;;;;;3.03;2.10;;;;;;;21.30;39.37;99672.22;7791131;32;38715;-80
2023/06/28 18:51:05;;;;;;;5.32;2.08;;;;;;;21.34;39.01;99673.13;7791644;32;37154;-75
2023/06/28 18:55:24;;;;;;;6.28;3.08;;;;;;;21.25;38.98;99675.22;7812689;32;39892;-74
2023/06/28 18:59:41;;;;;;;3.25;1.65;;;;;;;21.23;39.38;99685.84;7815655;31;39011;-76
2023/06/28 19:03:59;;;;;;;33.47;2.00;;;;;;;21.09;40.42;99699.22;7819287;32;38031;-77
2023/06/28 19:08:15;;;;;;;1.45;1.30;;;;;;;21.07;40.44;99695.97;7819405;32;37908;-77
2023/06/28 19:12:32;;;;;;;3.90;1.65;;;;;;;20.87;41.39;99708.75;7808784;31;39943;-77
2023/06/28 19:16:48;;;;;;;7.22;3.58;;;;;;;20.89;40.83;99712.00;7812065;31;39723;-78
2023/06/28 19:21:10;;;;;;;5.40;3.00;;;;;;;20.89;41.11;99715.59;7823334;31;37854;-78
2023/06/28 19:25:29;;;;;;;4.93;2.33;;;;;;;20.88;40.87;99711.19;7835802;31;37036;-78
2023/06/28 19:29:46;;;;;;;5.20;1.98;;;;;;;20.73;41.68;99714.59;7819096;32;39312;-79
2023/06/28 19:34:02;;;;;;;4.28;1.65;;;;;;;20.93;41.27;99713.72;7818665;31;40781;-78
2023/06/28 19:38:18;;;;;;;2.92;1.70;;;;;;;20.70;41.76;99731.94;7814278;32;38799;-77
2023/06/28 19:42:35;;;;;;;4.00;2.08;;;;;;;20.58;42.16;99735.44;7816825;32;36853;-77
2023/06/28 19:46:51;;;;;;;6.55;1.35;;;;;;;20.52;42.64;99732.03;7817982;32;39277;-79
2023/06/28 19:51:07;;;;;;;3.53;2.17;;;;;;;20.70;42.40;99734.69;7817151;32;39805;-79
2023/06/28 19:55:23;;;;;;;1.95;1.25;;;;;;;20.44;42.72;99741.25;7818092;32;38707;-78
2023/06/28 19:59:42;;;;;;;3.75;1.60;;;;;;;20.40;43.30;99751.38;7816921;32;36982;-78
2023/06/28 20:04:00;;;;;;;7.93;1.83;;;;;;;20.34;43.45;99752.75;7818076;32;37729;-78
2023/06/28 20:08:17;;;;;;;7.03;2.30;;;;;;;20.41;43.22;99748.28;7816778;32;41030;-76
2023/06/28 20:12:34;;;;;;;6.80;2.37;;;;;;;20.40;42.95;99745.84;7817585;32;37967;-75
2023/06/28 20:16:52;;;;;;;6.65;2.30;;;;;;;20.35;43.57;99744.09;7817489;32;36471;-76
2023/06/28 20:21:08;;;;;;;4.85;1.70;;;;;;;20.42;43.14;99749.91;7816918;32;38796;-75
2023/06/28 20:25:25;;;;;;;3.58;1.92;;;;;;;20.33;43.07;99757.44;7817551;32;39954;-76
2023/06/28 20:29:41;;;;;;;4.12;1.67;;;;;;;20.21;43.89;99749.91;7795922;31;36617;-76
2023/06/28 20:33:57;;;;;;;3.45;1.50;;;;;;;20.18;43.94;99742.28;7817376;32;37073;-75
2023/06/28 20:38:13;;;;;;;3.40;1.42;;;;;;;20.15;44.05;99751.25;7793587;32;39176;-76
2023/06/28 20:42:30;;;;;;;4.10;1.87;;;;;;;20.18;43.85;99752.53;7811010;32;39969;-76
2023/06/28 20:46:47;;;;;;;2.83;1.42;;;;;;;20.03;44.38;99749.22;7816431;32;37368;-76
2023/06/28 20:51:03;;;;;;;8.90;1.67;;;;;;;19.76;45.77;99761.59;7815560;32;36980;-76
2023/06/28 20:55:19;;;;;;;3.05;1.67;;;;;;;19.63;45.20;99762.63;7817022;32;40021;-77
2023/06/28 20:59:36;;;;;;;5.00;1.80;;;;;;;19.70;45.01;99752.66;7818747;32;39827;-77
2023/06/28 21:03:52;;;;;;;2.65;1.50;;;;;;;19.71;45.03;99764.50;7820482;32;37600;-76
2023/06/28 21:08:12;;;;;;;1.45;1.35;;;;;;;19.92;44.55;99764.63;7818158;31;36927;-76
2023/06/28 21:12:47;;;;;;;1.98;1.40;;;;;;;19.68;45.45;99774.31;7822230;31;39885;-76
2023/06/28 21:17:05;;;;;;;5.03;1.60;;;;;;;19.61;45.10;99775.97;7813047;31;40830;-77
2023/06/28 21:21:21;;;;;;;2.50;1.55;;;;;;;19.57;45.30;99775.00;7811750;31;37996;-77
2023/06/28 21:25:40;;;;;;;2.55;1.55;;;;;;;19.33;45.53;99781.94;7806940;31;37635;-77